CheckWX is a tool to help pilots better visualize weather data.  It is not intended as a substitute for an official pre-flight weather briefing.

06:00:29 UTC

EFVA TAF
Vaasa Airport
Vaasa, Finland
TAF EFVA 250535Z 2506/2606 29006KT CAVOK BECMG 2508/2510 35010KT PROB30 TEMPO 2510/2514 35015G25KT BECMG 2515/2517 VRB02KT

Mar-25@
06:00 UTC

Mar-25 @ 06:00 UTC

Mar-25@
08:00 UTC

Mar-25 @ 08:00 UTC

TAF EFVA 250535Z 2506/2606 29006KT CAVOK
Wind
  • 290° at 6 KTS
Conditions
No significant weather
Cloud Levels
  • No significant clouds

Mar-25@
08:00 UTC

Mar-25 @ 08:00 UTC

Mar-25@
15:00 UTC

Mar-25 @ 15:00 UTC

BECMG 2508/2510 35010KT

Becoming

Becoming Conditions expected by Mon, Mar 25, 2019 @ 10:00 UTC

Wind
  • 350° at 10 KTS
Conditions
No significant weather
Cloud Levels
  • No significant clouds

Mar-25@
10:00 UTC

Mar-25 @ 10:00 UTC

Mar-25@
14:00 UTC

Mar-25 @ 14:00 UTC

PROB30 TEMPO 2510/2514 35015G25KT

Temporary - 30% Likelihood

Temporary - 30% Likelihood during this time.

Wind
  • 350° at 15 KTS
  • {Gusting to 25 KTS

Mar-25@
15:00 UTC

Mar-25 @ 15:00 UTC

Mar-26@
06:00 UTC

Mar-26 @ 06:00 UTC

BECMG 2515/2517 VRB02KT

Becoming

Becoming Conditions expected by Mon, Mar 25, 2019 @ 17:00 UTC

Wind
  • Variable at 2 KTS
Conditions
No significant weather
Cloud Levels
  • No significant clouds